Time;durP1;ratioP1;P1;durP2;ratioP2;P2;SDS_P1;SDS_P2;PMS_P1;PMS_P2;Temp;Humidity;BMP_temperature;BMP_pressure;BME280_temperature;BME280_humidity;BME280_pressure;Samples;Min_cycle;Max_cycle;Signal;HPM_P1;HPM_P2
2024/01/27 00:02:00;;;;;;;;;;;;;;;14.38;45.16;98383.78;4969270;28;19922;-82
2024/01/27 00:04:26;;;;;;;;;;;;;;;14.40;44.69;98356.59;4971090;28;20302;-82
2024/01/27 00:06:52;;;;;;;;;;;;;;;14.95;44.56;98371.91;4971065;28;20012;-83
2024/01/27 00:09:18;;;;;;;;;;;;;;;16.23;40.91;98392.28;4962475;28;19922;-84
2024/01/27 00:11:44;;;;;;;;;;;;;;;16.09;40.73;98395.66;4965119;28;19926;-84
2024/01/27 00:14:10;;;;;;;;;;;;;;;16.65;40.57;98403.19;4972390;28;20009;-84
2024/01/27 00:16:36;;;;;;;;;;;;;;;17.31;38.21;98402.38;4975375;28;19918;-84
2024/01/27 00:19:02;;;;;;;;;;;;;;;15.41;43.02;98412.28;4982542;28;19926;-84
2024/01/27 00:21:28;;;;;;;;;;;;;;;16.37;38.90;98412.69;4969791;28;19930;-84
2024/01/27 00:24:00;;;;;;;;;;;;;;;15.38;43.46;98432.38;4981238;28;19922;-83
2024/01/27 00:26:26;;;;;;;;;;;;;;;15.82;42.69;98436.34;4969586;28;19921;-84
2024/01/27 00:28:52;;;;;;;;;;;;;;;15.32;43.43;98474.53;4974931;28;19922;-84
2024/01/27 00:31:19;;;;;;;;;;;;;;;15.65;42.96;98459.03;4972042;28;19926;-84
2024/01/27 00:33:45;;;;;;;;;;;;;;;16.59;39.33;98467.28;4968656;28;19914;-84
2024/01/27 00:36:11;;;;;;;;;;;;;;;17.07;37.97;98484.16;4965247;28;20030;-84
2024/01/27 00:38:38;;;;;;;;;;;;;;;16.12;40.95;98483.56;4952814;28;19977;-84
2024/01/27 00:41:04;;;;;;;;;;;;;;;15.55;43.02;98490.06;4972256;28;19925;-84
2024/01/27 00:43:30;;;;;;;;;;;;;;;15.88;40.06;98486.69;4974390;28;20366;-84
2024/01/27 00:45:56;;;;;;;;;;;;;;;16.78;38.17;98501.59;4968051;28;20017;-84
2024/01/27 00:48:22;;;;;;;;;;;;;;;16.80;38.35;98502.03;4967494;28;19941;-84
2024/01/27 00:50:48;;;;;;;;;;;;;;;17.12;36.51;98501.28;4969608;28;19923;-84
2024/01/27 00:53:15;;;;;;;;;;;;;;;15.60;40.75;98508.31;4977822;28;19945;-84
2024/01/27 00:55:42;;;;;;;;;;;;;;;16.77;37.16;98511.91;4969143;28;19945;-84
2024/01/27 00:58:08;;;;;;;;;;;;;;;16.00;40.48;98527.25;4960732;28;19929;-83
2024/01/27 01:00:34;;;;;;;;;;;;;;;17.04;36.94;98527.31;4976963;28;19926;-84
2024/01/27 01:03:00;;;;;;;;;;;;;;;17.57;35.52;98521.66;4972426;28;20318;-84
2024/01/27 01:05:26;;;;;;;;;;;;;;;17.73;35.09;98495.28;4963355;28;19957;-84
2024/01/27 01:07:52;;;;;;;;;;;;;;;17.48;36.07;98538.56;4973842;28;19938;-83
2024/01/27 01:10:18;;;;;;;;;;;;;;;17.83;34.56;98518.75;4971136;28;20386;-84
2024/01/27 01:12:44;;;;;;;;;;;;;;;17.87;35.49;98522.38;4962244;28;20010;-84
2024/01/27 01:15:10;;;;;;;;;;;;;;;18.05;34.75;98540.00;4964771;28;19929;-84
2024/01/27 01:17:36;;;;;;;;;;;;;;;17.66;35.03;98536.03;4968418;28;19922;-83
2024/01/27 01:20:02;;;;;;;;;;;;;;;16.53;37.33;98538.06;4967816;28;19950;-83
2024/01/27 01:22:28;;;;;;;;;;;;;;;15.53;40.34;98564.34;4967287;28;19977;-83
2024/01/27 01:24:54;;;;;;;;;;;;;;;17.02;35.47;98543.53;4971647;28;19957;-83
2024/01/27 01:27:21;;;;;;;;;;;;;;;16.28;38.72;98533.28;4974351;28;19922;-84
2024/01/27 01:29:47;;;;;;;;;;;;;;;16.47;37.52;98549.81;4967036;28;20378;-84
2024/01/27 01:32:13;;;;;;;;;;;;;;;16.98;35.12;98547.44;4964354;28;20354;-84
2024/01/27 01:34:39;;;;;;;;;;;;;;;16.95;35.59;98550.94;4963163;28;20017;-84
2024/01/27 01:37:05;;;;;;;;;;;;;;;17.96;33.61;98553.44;4967672;28;19922;-84
2024/01/27 01:39:31;;;;;;;;;;;;;;;19.19;30.77;98550.81;4971346;28;19922;-84
2024/01/27 01:41:57;;;;;;;;;;;;;;;17.74;33.94;98566.28;4969527;28;19929;-84
2024/01/27 01:44:29;;;;;;;;;;;;;;;17.42;34.71;98547.63;4963149;28;20298;-84
2024/01/27 01:46:55;;;;;;;;;;;;;;;16.59;36.72;98574.59;4962562;28;19929;-84
2024/01/27 01:49:21;;;;;;;;;;;;;;;16.34;35.17;98571.38;4973618;28;20017;-84
2024/01/27 01:51:48;;;;;;;;;;;;;;;17.07;33.78;98578.47;4973835;28;19922;-85
2024/01/27 01:54:14;;;;;;;;;;;;;;;17.34;34.76;98579.25;4971430;28;20386;-84
2024/01/27 01:56:41;;;;;;;;;;;;;;;18.02;31.89;98565.78;4961953;28;20409;-83
2024/01/27 01:59:08;;;;;;;;;;;;;;;17.18;33.61;98563.56;4971898;28;19922;-84
2024/01/27 02:01:34;;;;;;;;;;;;;;;18.26;31.88;98572.75;4971715;28;20274;-85
2024/01/27 02:04:00;;;;;;;;;;;;;;;17.74;33.38;98557.94;4968015;28;19928;-84
2024/01/27 02:06:26;;;;;;;;;;;;;;;17.65;33.47;98570.53;4950362;28;19926;-84
2024/01/27 02:08:52;;;;;;;;;;;;;;;19.22;30.87;98559.19;4971512;28;20383;-84
2024/01/27 02:11:18;;;;;;;;;;;;;;;18.33;32.25;98573.63;4968208;28;20337;-85
2024/01/27 02:13:44;;;;;;;;;;;;;;;18.02;31.95;98568.56;4973018;28;20020;-84
2024/01/27 02:16:10;;;;;;;;;;;;;;;17.09;34.08;98584.44;4963262;28;19929;-84
2024/01/27 02:18:36;;;;;;;;;;;;;;;18.11;32.56;98571.03;4973425;28;20333;-84
2024/01/27 02:21:02;;;;;;;;;;;;;;;17.26;33.54;98584.69;4972618;28;19977;-84
2024/01/27 02:23:28;;;;;;;;;;;;;;;16.11;36.49;98589.97;4973261;28;20354;-83
2024/01/27 02:25:55;;;;;;;;;;;;;;;17.56;33.07;98592.25;4967860;28;20421;-84
2024/01/27 02:28:21;;;;;;;;;;;;;;;17.25;34.48;98572.00;4973363;28;19949;-84
2024/01/27 02:30:47;;;;;;;;;;;;;;;14.58;39.26;98611.97;4975362;28;19933;-83
2024/01/27 02:33:13;;;;;;;;;;;;;;;15.52;39.32;98584.09;4974235;28;19929;-84
2024/01/27 02:35:40;;;;;;;;;;;;;;;15.93;37.14;98599.91;4964302;28;20013;-84
2024/01/27 02:38:06;;;;;;;;;;;;;;;16.56;35.84;98587.22;4968287;28;19926;-84
2024/01/27 02:40:32;;;;;;;;;;;;;;;17.10;34.91;98597.97;4959415;28;20409;-84
2024/01/27 02:42:58;;;;;;;;;;;;;;;17.85;33.82;98599.75;4977191;28;19922;-84
2024/01/27 02:45:24;;;;;;;;;;;;;;;18.54;31.74;98587.75;4972395;28;19918;-84
2024/01/27 02:47:50;;;;;;;;;;;;;;;18.29;31.87;98586.72;4957609;28;19918;-84
2024/01/27 02:50:16;;;;;;;;;;;;;;;18.44;31.80;98596.75;4974923;28;19922;-84
2024/01/27 02:52:42;;;;;;;;;;;;;;;18.51;31.42;98588.50;4976211;28;20511;-84
2024/01/27 02:55:08;;;;;;;;;;;;;;;18.13;32.88;98588.13;4969652;28;19919;-84
2024/01/27 02:57:34;;;;;;;;;;;;;;;18.78;31.08;98600.25;4975074;28;19922;-84
2024/01/27 03:00:00;;;;;;;;;;;;;;;19.29;30.44;98601.00;4975933;28;19922;-84
2024/01/27 03:02:26;;;;;;;;;;;;;;;19.09;29.89;98596.09;4961351;28;19934;-84
2024/01/27 03:04:52;;;;;;;;;;;;;;;18.41;31.04;98585.63;4967924;28;19922;-84
2024/01/27 03:07:18;;;;;;;;;;;;;;;18.90;29.58;98588.84;4969958;28;19997;-84
2024/01/27 03:09:44;;;;;;;;;;;;;;;19.54;28.70;98600.34;4974026;28;19934;-84
2024/01/27 03:12:10;;;;;;;;;;;;;;;19.43;28.81;98603.09;4964628;28;19929;-84
2024/01/27 03:14:37;;;;;;;;;;;;;;;18.44;29.94;98605.09;4975787;28;19925;-84
2024/01/27 03:17:03;;;;;;;;;;;;;;;16.87;35.13;98604.72;4967380;28;19977;-83
2024/01/27 03:19:29;;;;;;;;;;;;;;;17.56;31.04;98612.47;4968032;28;19918;-84
2024/01/27 03:21:55;;;;;;;;;;;;;;;17.74;31.04;98616.25;4975397;28;19985;-84
2024/01/27 03:24:21;;;;;;;;;;;;;;;16.36;34.10;98623.66;4974452;28;19923;-84
2024/01/27 03:26:47;;;;;;;;;;;;;;;16.45;36.31;98633.31;4970882;28;19922;-83
2024/01/27 03:29:13;;;;;;;;;;;;;;;18.28;29.94;98624.00;4968691;28;19933;-84
2024/01/27 03:31:39;;;;;;;;;;;;;;;16.78;33.97;98635.47;4974334;28;19922;-84
2024/01/27 03:34:05;;;;;;;;;;;;;;;16.74;31.49;98634.63;4954741;28;19988;-83
2024/01/27 03:36:31;;;;;;;;;;;;;;;15.78;33.93;98645.09;4975541;28;19929;-84
2024/01/27 03:38:58;;;;;;;;;;;;;;;16.08;34.74;98657.16;4960525;28;19929;-83
2024/01/27 03:41:24;;;;;;;;;;;;;;;15.46;35.99;98647.19;4969836;28;19942;-84
2024/01/27 03:43:50;;;;;;;;;;;;;;;16.39;34.58;98656.16;4973032;28;19918;-84
2024/01/27 03:46:16;;;;;;;;;;;;;;;14.63;37.94;98666.97;4972104;28;19922;-83
2024/01/27 03:48:42;;;;;;;;;;;;;;;15.32;36.49;98663.47;4972133;28;19922;-83
2024/01/27 03:51:08;;;;;;;;;;;;;;;15.07;37.59;98665.66;4971250;28;19918;-84
2024/01/27 03:53:34;;;;;;;;;;;;;;;16.90;30.87;98632.50;4971873;28;19924;-84
2024/01/27 03:56:03;;;;;;;;;;;;;;;15.61;36.54;98637.25;4968678;28;19925;-83
2024/01/27 03:58:30;;;;;;;;;;;;;;;15.61;33.85;98664.91;4971225;28;20255;-84
2024/01/27 04:00:56;;;;;;;;;;;;;;;16.80;31.40;98658.13;4973157;28;19937;-84
2024/01/27 04:03:23;;;;;;;;;;;;;;;17.43;33.05;98649.97;4944808;29;20391;-83
2024/01/27 04:05:49;;;;;;;;;;;;;;;18.39;30.11;98651.94;4957112;28;19948;-84
2024/01/27 04:08:15;;;;;;;;;;;;;;;19.57;27.78;98666.41;4957476;28;19944;-84
2024/01/27 04:10:41;;;;;;;;;;;;;;;19.31;29.18;98667.41;4975148;28;20016;-84
2024/01/27 04:13:07;;;;;;;;;;;;;;;16.20;35.02;98697.75;4969423;28;20024;-84
2024/01/27 04:15:38;;;;;;;;;;;;;;;15.19;39.07;98695.19;4970256;28;19980;-84
2024/01/27 04:18:11;;;;;;;;;;;;;;;15.94;35.47;98700.41;4963611;28;19922;-84
2024/01/27 04:20:37;;;;;;;;;;;;;;;16.87;33.82;98676.84;4967569;28;19997;-84
2024/01/27 04:23:04;;;;;;;;;;;;;;;15.35;35.33;98701.47;4965311;28;19966;-84
2024/01/27 04:25:30;;;;;;;;;;;;;;;17.11;33.10;98688.31;4966733;28;19929;-84
2024/01/27 04:27:56;;;;;;;;;;;;;;;17.13;33.76;98668.50;4972859;28;19923;-83
2024/01/27 04:30:22;;;;;;;;;;;;;;;17.83;32.28;98683.44;4970605;28;20016;-83
2024/01/27 04:32:49;;;;;;;;;;;;;;;18.69;29.51;98694.38;4963895;28;19929;-83
2024/01/27 04:35:16;;;;;;;;;;;;;;;16.99;32.46;98698.84;4970022;28;19929;-84
2024/01/27 04:37:44;;;;;;;;;;;;;;;17.02;34.13;98712.75;4971321;28;19922;-83
2024/01/27 04:40:10;;;;;;;;;;;;;;;16.19;35.34;98719.13;4974251;28;20021;-83
2024/01/27 04:42:39;;;;;;;;;;;;;;;16.98;33.23;98692.47;4958167;28;20333;-84
2024/01/27 04:45:06;;;;;;;;;;;;;;;18.54;30.64;98709.28;4974746;28;19922;-84
2024/01/27 04:47:32;;;;;;;;;;;;;;;18.38;30.80;98709.50;4971957;28;20326;-84
2024/01/27 04:49:58;;;;;;;;;;;;;;;17.98;32.02;98714.97;4972138;28;19922;-84
2024/01/27 04:52:25;;;;;;;;;;;;;;;19.04;30.32;98714.13;4971556;28;20080;-84
2024/01/27 04:54:52;;;;;;;;;;;;;;;18.73;30.31;98708.28;4968181;28;19930;-84
2024/01/27 04:57:18;;;;;;;;;;;;;;;19.35;29.50;98720.34;4972668;28;20013;-84
2024/01/27 04:59:44;;;;;;;;;;;;;;;19.71;28.91;98719.41;4970724;28;19922;-84
2024/01/27 05:02:10;;;;;;;;;;;;;;;19.05;30.02;98709.38;4970125;28;19926;-83
2024/01/27 05:04:37;;;;;;;;;;;;;;;20.40;27.78;98715.38;4969004;28;19922;-84
2024/01/27 05:07:03;;;;;;;;;;;;;;;19.32;29.96;98710.78;4965532;28;19933;-83
2024/01/27 05:09:29;;;;;;;;;;;;;;;18.68;30.07;98712.22;4956197;28;20009;-84
2024/01/27 05:11:55;;;;;;;;;;;;;;;17.48;33.06;98696.03;4964475;28;19934;-83
2024/01/27 05:14:21;;;;;;;;;;;;;;;17.69;33.20;98710.22;4972349;28;19922;-84
2024/01/27 05:16:47;;;;;;;;;;;;;;;18.07;30.71;98701.59;4974443;28;20279;-84
2024/01/27 05:19:13;;;;;;;;;;;;;;;18.61;29.85;98709.38;4967034;28;20349;-84
2024/01/27 05:21:39;;;;;;;;;;;;;;;18.14;30.96;98720.31;4969747;28;19922;-84
2024/01/27 05:24:05;;;;;;;;;;;;;;;16.56;33.29;98733.31;4964433;28;19953;-84
2024/01/27 05:26:31;;;;;;;;;;;;;;;17.07;31.57;98739.38;4971161;28;19922;-84
2024/01/27 05:28:57;;;;;;;;;;;;;;;18.14;30.25;98750.88;4972119;28;19922;-84
2024/01/27 05:31:25;;;;;;;;;;;;;;;18.76;29.25;98736.16;4970972;28;19926;-83
2024/01/27 05:33:51;;;;;;;;;;;;;;;15.18;37.17;98749.69;4960976;28;19926;-83
2024/01/27 05:36:17;;;;;;;;;;;;;;;14.69;36.41;98744.84;4967168;28;19922;-84
2024/01/27 05:38:43;;;;;;;;;;;;;;;15.85;33.78;98753.22;4954711;28;19930;-84
2024/01/27 05:41:09;;;;;;;;;;;;;;;15.75;34.92;98753.81;4968579;28;20371;-84
2024/01/27 05:43:35;;;;;;;;;;;;;;;17.84;30.91;98748.94;4966016;28;19922;-84
2024/01/27 05:46:01;;;;;;;;;;;;;;;19.18;28.55;98744.88;4971415;28;19919;-84
2024/01/27 05:48:27;;;;;;;;;;;;;;;16.94;32.99;98752.63;4973529;28;19930;-84
2024/01/27 05:50:56;;;;;;;;;;;;;;;18.18;29.95;98740.63;4962653;28;19926;-84
2024/01/27 05:53:22;;;;;;;;;;;;;;;19.24;28.24;98736.97;4966056;28;19958;-84
2024/01/27 05:55:48;;;;;;;;;;;;;;;18.33;29.99;98737.63;4973206;28;19922;-85
2024/01/27 05:58:15;;;;;;;;;;;;;;;16.60;33.03;98745.28;4959577;28;19938;-84
2024/01/27 06:00:43;;;;;;;;;;;;;;;17.55;30.93;98735.03;4969655;28;20021;-85
2024/01/27 06:03:09;;;;;;;;;;;;;;;17.48;31.25;98746.75;4969501;28;19930;-84
2024/01/27 06:05:35;;;;;;;;;;;;;;;17.96;29.41;98722.88;4974009;28;19926;-84
2024/01/27 06:08:01;;;;;;;;;;;;;;;18.70;28.88;98722.94;4968123;28;19922;-85
2024/01/27 06:10:27;;;;;;;;;;;;;;;18.03;30.75;98736.88;4968673;28;19936;-84
2024/01/27 06:12:53;;;;;;;;;;;;;;;17.43;30.99;98732.41;4966513;28;19922;-84
2024/01/27 06:15:19;;;;;;;;;;;;;;;16.71;31.57;98737.16;4952310;28;19918;-84
2024/01/27 06:17:45;;;;;;;;;;;;;;;17.03;31.49;98738.53;4967598;28;19923;-85
2024/01/27 06:20:11;;;;;;;;;;;;;;;16.17;32.43;98746.41;4966271;28;19923;-84
2024/01/27 06:22:37;;;;;;;;;;;;;;;16.56;32.01;98750.78;4974549;28;19922;-85
2024/01/27 06:25:03;;;;;;;;;;;;;;;16.68;30.96;98754.53;4972558;28;19930;-85
2024/01/27 06:27:30;;;;;;;;;;;;;;;16.30;31.38;98747.84;4969646;28;19965;-84
2024/01/27 06:29:56;;;;;;;;;;;;;;;16.30;31.74;98771.97;4973080;28;19988;-84
2024/01/27 06:32:22;;;;;;;;;;;;;;;15.83;34.40;98775.75;4964136;28;19941;-84
2024/01/27 06:34:48;;;;;;;;;;;;;;;16.78;31.83;98774.13;4967073;28;19937;-84
2024/01/27 06:37:14;;;;;;;;;;;;;;;17.57;29.70;98749.31;4973534;28;20378;-84
2024/01/27 06:39:40;;;;;;;;;;;;;;;17.36;30.84;98762.84;4970980;28;19914;-85
2024/01/27 06:42:06;;;;;;;;;;;;;;;16.56;30.98;98770.16;4946192;28;19922;-85
2024/01/27 06:44:32;;;;;;;;;;;;;;;16.18;31.21;98763.81;4960538;28;19937;-85
2024/01/27 06:46:58;;;;;;;;;;;;;;;15.55;32.84;98775.09;4946478;28;20005;-85
2024/01/27 06:49:24;;;;;;;;;;;;;;;15.02;33.23;98775.72;4969305;28;19930;-85
2024/01/27 06:51:50;;;;;;;;;;;;;;;14.91;34.36;98780.97;4967687;28;19937;-85
2024/01/27 06:54:16;;;;;;;;;;;;;;;16.20;30.73;98792.75;4946910;28;19974;-85
2024/01/27 06:56:42;;;;;;;;;;;;;;;15.89;33.72;98799.19;4969660;28;19922;-85
2024/01/27 06:59:08;;;;;;;;;;;;;;;15.68;31.70;98793.19;4972078;28;19922;-85
2024/01/27 07:01:34;;;;;;;;;;;;;;;14.57;34.15;98797.41;4967689;28;19926;-84
2024/01/27 07:04:00;;;;;;;;;;;;;;;15.05;33.68;98795.16;4950768;28;19922;-85
2024/01/27 07:06:27;;;;;;;;;;;;;;;15.60;35.02;98796.97;4967060;28;19945;-85
2024/01/27 07:08:53;;;;;;;;;;;;;;;15.50;37.08;98797.50;4961706;28;19922;-85
2024/01/27 07:11:19;;;;;;;;;;;;;;;15.36;34.92;98810.97;4967336;28;20389;-84
2024/01/27 07:13:45;;;;;;;;;;;;;;;15.51;33.79;98810.19;4972541;28;19929;-85
2024/01/27 07:16:11;;;;;;;;;;;;;;;16.61;30.77;98813.41;4965407;28;19929;-85
2024/01/27 07:18:37;;;;;;;;;;;;;;;16.94;30.16;98807.31;4975004;28;19921;-85
2024/01/27 07:21:03;;;;;;;;;;;;;;;16.96;30.17;98803.00;4970297;28;20305;-85
2024/01/27 07:23:29;;;;;;;;;;;;;;;16.28;31.67;98796.47;4968071;28;19930;-85
2024/01/27 07:25:57;;;;;;;;;;;;;;;16.46;33.95;98805.94;4971454;28;20331;-85
2024/01/27 07:28:23;;;;;;;;;;;;;;;15.71;35.10;98798.00;4964074;28;22500;-85
2024/01/27 07:30:49;;;;;;;;;;;;;;;15.87;32.73;98811.78;4962482;28;19957;-85
2024/01/27 07:33:15;;;;;;;;;;;;;;;16.05;31.23;98798.34;4966761;28;19993;-84
2024/01/27 07:35:41;;;;;;;;;;;;;;;15.44;35.67;98817.47;4945035;28;20065;-83
2024/01/27 07:38:08;;;;;;;;;;;;;;;17.41;29.50;98815.28;4964330;28;20024;-84
2024/01/27 07:40:35;;;;;;;;;;;;;;;17.40;30.45;98808.91;4963967;28;19942;-86
2024/01/27 07:43:01;;;;;;;;;;;;;;;17.09;28.85;98795.28;4967252;28;19969;-87
2024/01/27 07:45:27;;;;;;;;;;;;;;;16.40;33.93;98810.19;4970570;28;19922;-90
2024/01/27 07:47:53;;;;;;;;;;;;;;;17.54;28.95;98813.91;4966526;28;19923;-90
2024/01/27 07:50:19;;;;;;;;;;;;;;;17.66;28.52;98808.16;4971886;28;19928;-88
2024/01/27 07:52:45;;;;;;;;;;;;;;;16.12;35.58;98813.16;4949694;28;20398;-86
2024/01/27 07:55:11;;;;;;;;;;;;;;;16.55;30.16;98820.41;4968631;28;19918;-86
2024/01/27 07:57:37;;;;;;;;;;;;;;;17.28;28.57;98814.66;4968154;28;19926;-86
2024/01/27 08:00:03;;;;;;;;;;;;;;;17.99;28.47;98815.78;4970386;28;20029;-85
2024/01/27 08:02:29;;;;;;;;;;;;;;;18.16;27.00;98806.88;4965871;28;19925;-85
2024/01/27 08:04:56;;;;;;;;;;;;;;;18.16;29.09;98816.03;4949048;28;19981;-86
2024/01/27 08:07:22;;;;;;;;;;;;;;;18.52;26.95;98823.69;4966535;28;19922;-85
2024/01/27 08:09:48;;;;;;;;;;;;;;;16.82;30.53;98813.84;4969370;28;19960;-86
2024/01/27 08:12:14;;;;;;;;;;;;;;;15.93;34.81;98798.47;4966601;28;19926;-84
2024/01/27 08:14:40;;;;;;;;;;;;;;;18.07;27.79;98809.94;4965284;28;19969;-87
2024/01/27 08:17:06;;;;;;;;;;;;;;;17.62;27.52;98815.66;4962267;28;19926;-85
2024/01/27 08:19:32;;;;;;;;;;;;;;;16.82;29.49;98808.28;4962042;28;19928;-86
2024/01/27 08:21:58;;;;;;;;;;;;;;;17.07;28.72;98820.63;4969335;28;19925;-84
2024/01/27 08:24:25;;;;;;;;;;;;;;;17.43;30.33;98808.19;4965937;28;19962;-83
2024/01/27 08:26:51;;;;;;;;;;;;;;;18.60;26.67;98816.22;4971771;28;19972;-85
2024/01/27 08:29:17;;;;;;;;;;;;;;;17.46;28.27;98820.47;4970160;28;19923;-85
2024/01/27 08:31:43;;;;;;;;;;;;;;;17.73;27.25;98813.81;4966477;28;19922;-85
2024/01/27 08:34:12;;;;;;;;;;;;;;;18.21;27.30;98818.47;4962074;28;19922;-85
2024/01/27 08:36:38;;;;;;;;;;;;;;;17.21;29.12;98814.53;4968166;28;19921;-85
2024/01/27 08:39:07;;;;;;;;;;;;;;;17.83;27.72;98824.28;4969774;28;19926;-86
2024/01/27 08:41:33;;;;;;;;;;;;;;;18.27;27.69;98830.09;4966790;28;20679;-85
2024/01/27 08:44:00;;;;;;;;;;;;;;;18.12;27.01;98831.06;4969007;28;19922;-85
2024/01/27 08:46:26;;;;;;;;;;;;;;;18.37;28.71;98824.66;4966782;28;19922;-86
2024/01/27 08:48:52;;;;;;;;;;;;;;;18.31;26.78;98842.03;4967828;28;19941;-86
2024/01/27 08:51:18;;;;;;;;;;;;;;;17.59;28.68;98824.72;4967195;28;20375;-86
2024/01/27 08:53:50;;;;;;;;;;;;;;;17.38;27.58;98840.97;4973930;28;19933;-87
2024/01/27 08:56:17;;;;;;;;;;;;;;;16.37;34.78;98830.31;4967922;28;19957;-87
2024/01/27 08:58:43;;;;;;;;;;;;;;;17.83;27.27;98827.06;4973806;28;19929;-87
2024/01/27 09:01:12;;;;;;;;;;;;;;;17.21;28.11;98837.53;4966038;28;19945;-85
2024/01/27 09:03:40;;;;;;;;;;;;;;;17.28;28.18;98845.19;4967322;28;19922;-86
2024/01/27 09:06:07;;;;;;;;;;;;;;;19.61;25.12;98821.22;4965820;28;19986;-86
2024/01/27 09:08:34;;;;;;;;;;;;;;;18.40;26.54;98826.69;4963955;28;19930;-86
2024/01/27 09:11:01;;;;;;;;;;;;;;;17.94;28.14;98841.94;4974639;28;19925;-84
2024/01/27 09:13:27;;;;;;;;;;;;;;;18.09;27.42;98838.16;4960888;28;19937;-86
2024/01/27 09:15:53;;;;;;;;;;;;;;;18.49;26.64;98841.13;4967203;28;20382;-85
2024/01/27 09:18:19;;;;;;;;;;;;;;;17.73;29.69;98825.75;4965263;28;19922;-84
2024/01/27 09:20:46;;;;;;;;;;;;;;;17.55;28.64;98848.84;4965018;28;19925;-85
2024/01/27 09:23:12;;;;;;;;;;;;;;;17.60;29.16;98849.31;4963219;28;19922;-85
2024/01/27 09:25:39;;;;;;;;;;;;;;;15.51;35.95;98860.00;4968210;28;20046;-83
2024/01/27 09:28:05;;;;;;;;;;;;;;;17.12;29.62;98861.13;4962697;28;19926;-84
2024/01/27 09:30:31;;;;;;;;;;;;;;;15.61;35.04;98866.97;4972206;28;20294;-84
2024/01/27 09:32:57;;;;;;;;;;;;;;;15.36;36.94;98885.66;4964195;28;19919;-84
2024/01/27 09:35:23;;;;;;;;;;;;;;;16.38;32.02;98890.91;4967853;28;19995;-84
2024/01/27 09:37:49;;;;;;;;;;;;;;;17.27;30.34;98877.66;4964152;28;20015;-85
2024/01/27 09:40:15;;;;;;;;;;;;;;;17.26;32.21;98889.16;4946934;28;19934;-84
2024/01/27 09:42:46;;;;;;;;;;;;;;;16.75;33.55;98896.88;4966662;28;21884;-83
2024/01/27 09:45:12;;;;;;;;;;;;;;;16.42;32.35;98907.63;4961598;28;20026;-85
2024/01/27 09:47:39;;;;;;;;;;;;;;;17.08;30.88;98899.13;4970351;28;20926;-85
2024/01/27 09:50:05;;;;;;;;;;;;;;;14.54;36.06;98895.63;4955932;28;20046;-84
2024/01/27 09:52:31;;;;;;;;;;;;;;;16.51;32.89;98911.81;4959298;28;20000;-85
2024/01/27 09:54:57;;;;;;;;;;;;;;;18.28;29.87;98912.28;4963762;28;20089;-85
2024/01/27 09:57:24;;;;;;;;;;;;;;;19.23;28.01;98897.63;4963907;28;20020;-83
2024/01/27 09:59:50;;;;;;;;;;;;;;;17.72;30.92;98898.31;4970909;28;20297;-85
2024/01/27 10:02:17;;;;;;;;;;;;;;;18.59;30.19;98892.50;4966090;28;20032;-84
2024/01/27 10:04:43;;;;;;;;;;;;;;;18.01;29.87;98897.59;4951961;28;19926;-87
2024/01/27 10:07:10;;;;;;;;;;;;;;;18.21;29.62;98890.75;4969478;28;19929;-85
2024/01/27 10:09:36;;;;;;;;;;;;;;;18.48;29.35;98889.56;4969823;28;19949;-85
2024/01/27 10:12:02;;;;;;;;;;;;;;;18.25;29.53;98885.25;4965034;28;19922;-85
2024/01/27 10:14:41;;;;;;;;;;;;;;;17.75;30.59;98892.81;4963658;28;19969;-83
2024/01/27 10:17:10;;;;;;;;;;;;;;;16.57;33.12;98890.94;4965380;28;20297;-84
2024/01/27 10:19:37;;;;;;;;;;;;;;;17.13;31.00;98896.03;4966827;28;20463;-84
2024/01/27 10:22:03;;;;;;;;;;;;;;;16.54;32.51;98886.16;4969615;28;20008;-85
2024/01/27 10:24:30;;;;;;;;;;;;;;;18.34;29.57;98888.56;4977421;28;19929;-85
2024/01/27 10:27:00;;;;;;;;;;;;;;;17.24;31.29;98889.53;4971391;28;19977;-85
2024/01/27 10:29:26;;;;;;;;;;;;;;;17.41;30.85;98899.31;4969977;28;20409;-85
2024/01/27 10:31:52;;;;;;;;;;;;;;;17.26;31.31;98884.41;4955017;28;20306;-84
2024/01/27 10:34:21;;;;;;;;;;;;;;;17.57;31.56;98872.28;4960921;28;19933;-85
2024/01/27 10:36:47;;;;;;;;;;;;;;;16.49;32.37;98883.63;4962276;28;19914;-85
2024/01/27 10:39:14;;;;;;;;;;;;;;;17.24;30.87;98886.75;4964435;28;19945;-84
2024/01/27 10:41:42;;;;;;;;;;;;;;;17.46;30.45;98887.09;4961134;28;19962;-85
2024/01/27 10:44:12;;;;;;;;;;;;;;;18.42;29.54;98879.94;4965106;28;20021;-85
2024/01/27 10:46:38;;;;;;;;;;;;;;;16.82;31.93;98888.72;4964660;28;19922;-84
2024/01/27 10:49:05;;;;;;;;;;;;;;;17.14;31.21;98886.53;4964054;28;19933;-85
2024/01/27 10:51:32;;;;;;;;;;;;;;;16.63;32.14;98897.03;4971388;28;19922;-84
2024/01/27 10:54:01;;;;;;;;;;;;;;;17.74;31.00;98884.84;4964782;28;20001;-84
2024/01/27 10:56:27;;;;;;;;;;;;;;;18.09;30.01;98885.41;4970666;28;20005;-84
2024/01/27 10:58:53;;;;;;;;;;;;;;;16.90;31.50;98892.41;4968134;28;19925;-85
2024/01/27 11:01:22;;;;;;;;;;;;;;;17.14;31.46;98892.09;4964380;28;19933;-85
2024/01/27 11:03:49;;;;;;;;;;;;;;;16.95;31.94;98894.88;4961146;28;19926;-84
2024/01/27 11:06:16;;;;;;;;;;;;;;;16.83;32.02;98897.81;4970567;28;20027;-84
2024/01/27 11:08:42;;;;;;;;;;;;;;;17.32;30.85;98893.22;4968072;28;19922;-85
2024/01/27 11:11:09;;;;;;;;;;;;;;;17.76;30.44;98886.06;4975378;28;19926;-84
2024/01/27 11:13:35;;;;;;;;;;;;;;;18.50;29.40;98887.22;4973342;28;19918;-85
2024/01/27 11:16:02;;;;;;;;;;;;;;;18.57;29.50;98895.66;4972574;28;19929;-85
2024/01/27 11:18:29;;;;;;;;;;;;;;;17.87;30.21;98895.41;4971383;28;20330;-86
2024/01/27 11:20:56;;;;;;;;;;;;;;;18.33;29.96;98904.44;4970472;28;20364;-84
2024/01/27 11:23:31;;;;;;;;;;;;;;;17.00;31.80;98883.50;4971261;28;19923;-85
2024/01/27 11:26:07;;;;;;;;;;;;;;;17.68;31.18;98905.78;4975121;28;20009;-85
2024/01/27 11:28:33;;;;;;;;;;;;;;;18.11;30.29;98885.03;4973005;28;19918;-85
2024/01/27 11:31:03;;;;;;;;;;;;;;;16.93;31.98;98898.03;4974054;28;19958;-84
2024/01/27 11:33:29;;;;;;;;;;;;;;;18.22;30.17;98886.00;4972420;28;19918;-84
2024/01/27 11:36:05;;;;;;;;;;;;;;;18.21;30.38;98893.53;4970649;28;19969;-84
2024/01/27 11:38:31;;;;;;;;;;;;;;;17.19;31.87;98900.13;4971102;28;19932;-83
2024/01/27 11:40:59;;;;;;;;;;;;;;;17.86;30.72;98904.91;4956405;28;19923;-85
2024/01/27 11:43:25;;;;;;;;;;;;;;;16.38;34.25;98903.97;4958056;28;19961;-84
2024/01/27 11:45:58;;;;;;;;;;;;;;;18.20;30.48;98900.28;4973456;28;19933;-84
2024/01/27 11:48:24;;;;;;;;;;;;;;;18.16;30.23;98893.84;4976726;28;19926;-84
2024/01/27 11:51:02;;;;;;;;;;;;;;;18.19;30.06;98898.66;4971362;28;19965;-83
2024/01/27 11:53:28;;;;;;;;;;;;;;;17.10;32.64;98891.22;4974339;28;19918;-84
2024/01/27 11:55:55;;;;;;;;;;;;;;;17.92;31.01;98902.63;4969917;28;19922;-84
2024/01/27 11:58:22;;;;;;;;;;;;;;;17.66;31.17;98911.72;4968792;28;19933;-84
2024/01/27 12:00:48;;;;;;;;;;;;;;;17.80;30.97;98902.81;4968424;28;19997;-84
2024/01/27 12:03:14;;;;;;;;;;;;;;;18.30;31.07;98902.38;4961184;28;20468;-84
2024/01/27 12:05:40;;;;;;;;;;;;;;;17.46;31.63;98898.22;4968949;28;19923;-84
2024/01/27 12:08:07;;;;;;;;;;;;;;;16.73;32.63;98904.78;4966352;28;19962;-84
2024/01/27 12:10:33;;;;;;;;;;;;;;;16.90;32.85;98914.59;4972909;28;19930;-83
2024/01/27 12:13:00;;;;;;;;;;;;;;;16.42;34.37;98902.88;4973196;28;20033;-84
2024/01/27 12:15:26;;;;;;;;;;;;;;;17.57;31.33;98902.03;4970522;28;20004;-84
2024/01/27 12:17:52;;;;;;;;;;;;;;;16.67;33.04;98900.66;4973406;28;19919;-85
2024/01/27 12:20:19;;;;;;;;;;;;;;;16.94;33.18;98913.50;4974761;28;19914;-84
2024/01/27 12:22:45;;;;;;;;;;;;;;;17.03;32.88;98914.09;4975155;28;19921;-84
2024/01/27 12:25:13;;;;;;;;;;;;;;;17.84;31.15;98917.56;4972994;28;19965;-84
2024/01/27 12:27:39;;;;;;;;;;;;;;;15.92;35.14;98919.50;4966393;28;19926;-83
2024/01/27 12:30:06;;;;;;;;;;;;;;;18.19;30.96;98926.47;4963875;28;19923;-84
2024/01/27 12:32:32;;;;;;;;;;;;;;;17.16;32.17;98936.91;4972668;28;19925;-85
2024/01/27 12:35:01;;;;;;;;;;;;;;;16.70;33.15;98941.53;4969726;28;19929;-86
2024/01/27 12:37:28;;;;;;;;;;;;;;;16.56;33.22;98939.25;4965157;28;19930;-84
2024/01/27 12:39:53;;;;;;;;;;;;;;;17.17;32.60;98942.13;4965251;28;20375;-85
2024/01/27 12:42:20;;;;;;;;;;;;;;;18.47;30.62;98945.56;4967705;28;19928;-85
2024/01/27 12:44:46;;;;;;;;;;;;;;;17.51;32.54;98948.72;4956335;28;19977;-84